sensor_id;sensor_type;location;lat;lon;timestamp;P1;durP1;ratioP1;P2;durP2;ratioP2
15358;SDS011;7779;49.596;11.070;2023-05-16T00:00:17;3.43;;;2.47;;
15358;SDS011;7779;49.596;11.070;2023-05-16T00:02:44;2.83;;;2.33;;
15358;SDS011;7779;49.596;11.070;2023-05-16T00:05:10;3.90;;;2.40;;
15358;SDS011;7779;49.596;11.070;2023-05-16T00:07:40;3.47;;;2.70;;
15358;SDS011;7779;49.596;11.070;2023-05-16T00:10:08;4.53;;;2.30;;
15358;SDS011;7779;49.596;11.070;2023-05-16T00:12:35;3.10;;;2.60;;
15358;SDS011;7779;49.596;11.070;2023-05-16T00:15:04;2.63;;;2.40;;
15358;SDS011;7779;49.596;11.070;2023-05-16T00:17:33;2.40;;;2.20;;
15358;SDS011;7779;49.596;11.070;2023-05-16T00:20:00;2.60;;;2.40;;
15358;SDS011;7779;49.596;11.070;2023-05-16T00:22:35;3.33;;;2.73;;
15358;SDS011;7779;49.596;11.070;2023-05-16T00:25:05;3.20;;;2.63;;
15358;SDS011;7779;49.596;11.070;2023-05-16T00:27:33;3.07;;;2.60;;
15358;SDS011;7779;49.596;11.070;2023-05-16T00:30:00;2.87;;;2.67;;
15358;SDS011;7779;49.596;11.070;2023-05-16T00:32:27;2.80;;;2.60;;
15358;SDS011;7779;49.596;11.070;2023-05-16T00:34:53;2.73;;;2.50;;
15358;SDS011;7779;49.596;11.070;2023-05-16T00:37:19;3.40;;;2.63;;
15358;SDS011;7779;49.596;11.070;2023-05-16T00:39:45;2.80;;;2.53;;
15358;SDS011;7779;49.596;11.070;2023-05-16T00:42:11;2.93;;;2.73;;
15358;SDS011;7779;49.596;11.070;2023-05-16T00:44:37;2.97;;;2.57;;
15358;SDS011;7779;49.596;11.070;2023-05-16T00:47:03;2.30;;;2.10;;
15358;SDS011;7779;49.596;11.070;2023-05-16T00:49:29;2.80;;;2.60;;
15358;SDS011;7779;49.596;11.070;2023-05-16T00:51:55;2.73;;;2.53;;
15358;SDS011;7779;49.596;11.070;2023-05-16T00:54:22;3.83;;;2.63;;
15358;SDS011;7779;49.596;11.070;2023-05-16T00:56:51;3.93;;;2.70;;
15358;SDS011;7779;49.596;11.070;2023-05-16T00:59:17;3.93;;;2.73;;
15358;SDS011;7779;49.596;11.070;2023-05-16T01:01:45;4.60;;;2.70;;
15358;SDS011;7779;49.596;11.070;2023-05-16T01:04:12;2.83;;;2.47;;
15358;SDS011;7779;49.596;11.070;2023-05-16T01:06:38;3.43;;;2.57;;
15358;SDS011;7779;49.596;11.070;2023-05-16T01:09:05;2.90;;;2.70;;
15358;SDS011;7779;49.596;11.070;2023-05-16T01:11:42;2.53;;;2.33;;
15358;SDS011;7779;49.596;11.070;2023-05-16T01:17:44;2.40;;;2.20;;
15358;SDS011;7779;49.596;11.070;2023-05-16T01:20:48;2.77;;;2.57;;
15358;SDS011;7779;49.596;11.070;2023-05-16T01:23:26;2.43;;;2.23;;
15358;SDS011;7779;49.596;11.070;2023-05-16T01:28:40;2.70;;;2.50;;
15358;SDS011;7779;49.596;11.070;2023-05-16T01:31:09;3.23;;;2.50;;
15358;SDS011;7779;49.596;11.070;2023-05-16T01:33:35;3.57;;;2.70;;
15358;SDS011;7779;49.596;11.070;2023-05-16T01:39:18;2.73;;;2.40;;
15358;SDS011;7779;49.596;11.070;2023-05-16T01:42:12;2.87;;;2.57;;
15358;SDS011;7779;49.596;11.070;2023-05-16T01:44:49;2.90;;;2.67;;
15358;SDS011;7779;49.596;11.070;2023-05-16T01:47:46;2.97;;;2.77;;
15358;SDS011;7779;49.596;11.070;2023-05-16T01:50:33;3.07;;;2.77;;
15358;SDS011;7779;49.596;11.070;2023-05-16T01:53:06;2.97;;;2.77;;
15358;SDS011;7779;49.596;11.070;2023-05-16T01:55:43;3.03;;;2.83;;
15358;SDS011;7779;49.596;11.070;2023-05-16T01:58:12;2.53;;;2.33;;
15358;SDS011;7779;49.596;11.070;2023-05-16T02:00:41;2.93;;;2.50;;
15358;SDS011;7779;49.596;11.070;2023-05-16T02:03:07;3.40;;;3.10;;
15358;SDS011;7779;49.596;11.070;2023-05-16T02:05:33;3.13;;;2.90;;
15358;SDS011;7779;49.596;11.070;2023-05-16T02:08:00;3.20;;;2.90;;
15358;SDS011;7779;49.596;11.070;2023-05-16T02:10:27;3.23;;;3.00;;
15358;SDS011;7779;49.596;11.070;2023-05-16T02:12:52;3.03;;;2.83;;
15358;SDS011;7779;49.596;11.070;2023-05-16T02:15:18;3.00;;;2.70;;
15358;SDS011;7779;49.596;11.070;2023-05-16T02:17:44;3.03;;;2.83;;
15358;SDS011;7779;49.596;11.070;2023-05-16T02:20:11;3.13;;;2.83;;
15358;SDS011;7779;49.596;11.070;2023-05-16T02:22:37;3.23;;;2.93;;
15358;SDS011;7779;49.596;11.070;2023-05-16T02:25:04;3.57;;;3.27;;
15358;SDS011;7779;49.596;11.070;2023-05-16T02:27:31;3.63;;;3.33;;
15358;SDS011;7779;49.596;11.070;2023-05-16T02:29:57;2.97;;;2.77;;
15358;SDS011;7779;49.596;11.070;2023-05-16T02:32:23;3.00;;;2.80;;
15358;SDS011;7779;49.596;11.070;2023-05-16T02:34:50;3.17;;;2.97;;
15358;SDS011;7779;49.596;11.070;2023-05-16T02:37:16;3.33;;;3.03;;
15358;SDS011;7779;49.596;11.070;2023-05-16T02:39:42;2.90;;;2.70;;
15358;SDS011;7779;49.596;11.070;2023-05-16T02:42:08;3.17;;;2.90;;
15358;SDS011;7779;49.596;11.070;2023-05-16T02:44:34;3.40;;;3.10;;
15358;SDS011;7779;49.596;11.070;2023-05-16T02:47:00;4.20;;;2.90;;
15358;SDS011;7779;49.596;11.070;2023-05-16T02:49:26;3.37;;;3.07;;
15358;SDS011;7779;49.596;11.070;2023-05-16T02:51:51;3.63;;;2.80;;
15358;SDS011;7779;49.596;11.070;2023-05-16T02:54:17;3.17;;;2.97;;
15358;SDS011;7779;49.596;11.070;2023-05-16T02:56:43;3.73;;;3.10;;
15358;SDS011;7779;49.596;11.070;2023-05-16T02:59:10;5.47;;;3.00;;
15358;SDS011;7779;49.596;11.070;2023-05-16T03:01:36;3.17;;;2.97;;
15358;SDS011;7779;49.596;11.070;2023-05-16T03:04:03;3.33;;;3.03;;
15358;SDS011;7779;49.596;11.070;2023-05-16T03:06:30;3.87;;;3.50;;
15358;SDS011;7779;49.596;11.070;2023-05-16T03:08:58;3.77;;;3.20;;
15358;SDS011;7779;49.596;11.070;2023-05-16T03:11:24;3.43;;;3.13;;
15358;SDS011;7779;49.596;11.070;2023-05-16T03:13:52;3.53;;;3.20;;
15358;SDS011;7779;49.596;11.070;2023-05-16T03:16:18;3.80;;;3.40;;
15358;SDS011;7779;49.596;11.070;2023-05-16T03:18:44;5.87;;;3.37;;
15358;SDS011;7779;49.596;11.070;2023-05-16T03:21:10;3.80;;;3.40;;
15358;SDS011;7779;49.596;11.070;2023-05-16T03:23:36;3.80;;;3.50;;
15358;SDS011;7779;49.596;11.070;2023-05-16T03:26:03;3.17;;;2.90;;
15358;SDS011;7779;49.596;11.070;2023-05-16T03:28:29;3.63;;;3.33;;
15358;SDS011;7779;49.596;11.070;2023-05-16T03:30:55;3.40;;;3.10;;
15358;SDS011;7779;49.596;11.070;2023-05-16T03:33:21;4.00;;;3.70;;
15358;SDS011;7779;49.596;11.070;2023-05-16T03:35:48;3.60;;;3.27;;
15358;SDS011;7779;49.596;11.070;2023-05-16T03:38:15;3.93;;;3.33;;
15358;SDS011;7779;49.596;11.070;2023-05-16T03:40:42;3.57;;;3.27;;
15358;SDS011;7779;49.596;11.070;2023-05-16T03:43:08;4.10;;;3.70;;
15358;SDS011;7779;49.596;11.070;2023-05-16T03:45:34;3.80;;;3.37;;
15358;SDS011;7779;49.596;11.070;2023-05-16T03:48:00;3.67;;;3.33;;
15358;SDS011;7779;49.596;11.070;2023-05-16T03:50:25;3.50;;;3.20;;
15358;SDS011;7779;49.596;11.070;2023-05-16T03:52:51;3.50;;;3.20;;
15358;SDS011;7779;49.596;11.070;2023-05-16T03:55:19;4.10;;;3.73;;
15358;SDS011;7779;49.596;11.070;2023-05-16T03:57:45;3.93;;;3.63;;
15358;SDS011;7779;49.596;11.070;2023-05-16T04:00:12;3.60;;;3.30;;
15358;SDS011;7779;49.596;11.070;2023-05-16T04:02:38;4.00;;;3.70;;
15358;SDS011;7779;49.596;11.070;2023-05-16T04:05:08;4.43;;;3.60;;
15358;SDS011;7779;49.596;11.070;2023-05-16T04:07:35;4.10;;;3.80;;
15358;SDS011;7779;49.596;11.070;2023-05-16T04:10:02;4.67;;;4.27;;
15358;SDS011;7779;49.596;11.070;2023-05-16T04:12:29;4.30;;;3.90;;
15358;SDS011;7779;49.596;11.070;2023-05-16T04:14:55;4.30;;;3.90;;
15358;SDS011;7779;49.596;11.070;2023-05-16T04:17:20;4.30;;;4.00;;
15358;SDS011;7779;49.596;11.070;2023-05-16T04:19:46;4.13;;;3.83;;
15358;SDS011;7779;49.596;11.070;2023-05-16T04:22:12;4.20;;;3.80;;
15358;SDS011;7779;49.596;11.070;2023-05-16T04:24:37;4.37;;;3.97;;
15358;SDS011;7779;49.596;11.070;2023-05-16T04:27:03;4.70;;;4.30;;
15358;SDS011;7779;49.596;11.070;2023-05-16T04:29:32;4.70;;;4.30;;
15358;SDS011;7779;49.596;11.070;2023-05-16T04:31:59;4.47;;;4.07;;
15358;SDS011;7779;49.596;11.070;2023-05-16T04:34:26;4.53;;;4.13;;
15358;SDS011;7779;49.596;11.070;2023-05-16T04:36:52;4.60;;;4.20;;
15358;SDS011;7779;49.596;11.070;2023-05-16T04:39:19;4.73;;;4.33;;
15358;SDS011;7779;49.596;11.070;2023-05-16T04:41:45;4.63;;;4.07;;
15358;SDS011;7779;49.596;11.070;2023-05-16T04:44:10;4.73;;;4.33;;
15358;SDS011;7779;49.596;11.070;2023-05-16T04:46:36;5.30;;;4.70;;
15358;SDS011;7779;49.596;11.070;2023-05-16T04:49:02;5.93;;;4.37;;
15358;SDS011;7779;49.596;11.070;2023-05-16T04:51:28;5.33;;;4.67;;
15358;SDS011;7779;49.596;11.070;2023-05-16T04:53:53;5.17;;;4.67;;
15358;SDS011;7779;49.596;11.070;2023-05-16T04:56:20;5.07;;;4.30;;
15358;SDS011;7779;49.596;11.070;2023-05-16T04:58:46;5.10;;;4.60;;
15358;SDS011;7779;49.596;11.070;2023-05-16T05:01:12;4.93;;;4.43;;
15358;SDS011;7779;49.596;11.070;2023-05-16T05:03:37;4.73;;;4.33;;
15358;SDS011;7779;49.596;11.070;2023-05-16T05:06:03;4.67;;;4.27;;
15358;SDS011;7779;49.596;11.070;2023-05-16T05:08:29;4.70;;;4.30;;
15358;SDS011;7779;49.596;11.070;2023-05-16T05:10:55;4.60;;;4.20;;
15358;SDS011;7779;49.596;11.070;2023-05-16T05:13:21;9.47;;;4.63;;
15358;SDS011;7779;49.596;11.070;2023-05-16T05:15:48;5.40;;;4.90;;
15358;SDS011;7779;49.596;11.070;2023-05-16T05:18:16;5.30;;;4.80;;
15358;SDS011;7779;49.596;11.070;2023-05-16T05:20:42;4.50;;;4.10;;
15358;SDS011;7779;49.596;11.070;2023-05-16T05:23:08;5.30;;;4.80;;
15358;SDS011;7779;49.596;11.070;2023-05-16T05:25:37;4.80;;;4.40;;
15358;SDS011;7779;49.596;11.070;2023-05-16T05:28:03;5.33;;;4.90;;
15358;SDS011;7779;49.596;11.070;2023-05-16T05:30:30;5.83;;;5.10;;
15358;SDS011;7779;49.596;11.070;2023-05-16T05:32:55;5.27;;;4.87;;
15358;SDS011;7779;49.596;11.070;2023-05-16T05:35:21;5.73;;;5.23;;
15358;SDS011;7779;49.596;11.070;2023-05-16T05:37:47;6.07;;;5.47;;
15358;SDS011;7779;49.596;11.070;2023-05-16T05:40:12;6.80;;;5.63;;
15358;SDS011;7779;49.596;11.070;2023-05-16T05:42:38;5.77;;;5.27;;
15358;SDS011;7779;49.596;11.070;2023-05-16T05:45:04;6.97;;;5.93;;
15358;SDS011;7779;49.596;11.070;2023-05-16T05:47:31;5.90;;;5.40;;
15358;SDS011;7779;49.596;11.070;2023-05-16T05:49:57;6.17;;;5.67;;
15358;SDS011;7779;49.596;11.070;2023-05-16T05:52:23;5.63;;;5.13;;
15358;SDS011;7779;49.596;11.070;2023-05-16T05:54:49;6.03;;;5.47;;
15358;SDS011;7779;49.596;11.070;2023-05-16T05:57:15;6.17;;;4.97;;
15358;SDS011;7779;49.596;11.070;2023-05-16T05:59:40;6.13;;;5.40;;
15358;SDS011;7779;49.596;11.070;2023-05-16T06:02:06;6.60;;;5.23;;
15358;SDS011;7779;49.596;11.070;2023-05-16T06:04:32;5.90;;;5.40;;
15358;SDS011;7779;49.596;11.070;2023-05-16T06:06:58;5.83;;;5.33;;
15358;SDS011;7779;49.596;11.070;2023-05-16T06:09:23;5.93;;;5.33;;
15358;SDS011;7779;49.596;11.070;2023-05-16T06:11:49;6.97;;;5.20;;
15358;SDS011;7779;49.596;11.070;2023-05-16T06:14:15;7.40;;;5.73;;
15358;SDS011;7779;49.596;11.070;2023-05-16T06:16:41;6.30;;;5.23;;
15358;SDS011;7779;49.596;11.070;2023-05-16T06:19:07;5.70;;;5.20;;
15358;SDS011;7779;49.596;11.070;2023-05-16T06:21:32;12.43;;;5.83;;
15358;SDS011;7779;49.596;11.070;2023-05-16T06:23:58;7.00;;;5.33;;
15358;SDS011;7779;49.596;11.070;2023-05-16T06:26:24;6.30;;;5.70;;
15358;SDS011;7779;49.596;11.070;2023-05-16T06:28:50;6.37;;;4.90;;
15358;SDS011;7779;49.596;11.070;2023-05-16T06:31:16;9.20;;;4.97;;
15358;SDS011;7779;49.596;11.070;2023-05-16T06:33:42;6.00;;;5.40;;
15358;SDS011;7779;49.596;11.070;2023-05-16T06:36:08;6.10;;;5.07;;
15358;SDS011;7779;49.596;11.070;2023-05-16T06:38:33;5.30;;;4.77;;
15358;SDS011;7779;49.596;11.070;2023-05-16T06:40:59;5.43;;;4.93;;
15358;SDS011;7779;49.596;11.070;2023-05-16T06:43:25;4.90;;;4.50;;
15358;SDS011;7779;49.596;11.070;2023-05-16T06:45:50;5.53;;;5.03;;
15358;SDS011;7779;49.596;11.070;2023-05-16T06:48:16;5.33;;;4.77;;
15358;SDS011;7779;49.596;11.070;2023-05-16T06:50:46;5.53;;;5.00;;
15358;SDS011;7779;49.596;11.070;2023-05-16T06:53:13;4.77;;;4.40;;
15358;SDS011;7779;49.596;11.070;2023-05-16T06:55:39;5.27;;;4.77;;
15358;SDS011;7779;49.596;11.070;2023-05-16T06:58:04;6.70;;;5.43;;
15358;SDS011;7779;49.596;11.070;2023-05-16T07:00:30;4.93;;;4.53;;
15358;SDS011;7779;49.596;11.070;2023-05-16T07:02:56;5.13;;;4.60;;
15358;SDS011;7779;49.596;11.070;2023-05-16T07:05:21;6.37;;;5.33;;
15358;SDS011;7779;49.596;11.070;2023-05-16T07:07:47;5.23;;;4.73;;
15358;SDS011;7779;49.596;11.070;2023-05-16T07:10:13;5.60;;;5.17;;
15358;SDS011;7779;49.596;11.070;2023-05-16T07:12:40;5.03;;;4.60;;
15358;SDS011;7779;49.596;11.070;2023-05-16T07:15:07;5.27;;;4.77;;
15358;SDS011;7779;49.596;11.070;2023-05-16T07:17:33;5.30;;;4.80;;
15358;SDS011;7779;49.596;11.070;2023-05-16T07:19:59;7.50;;;4.90;;
15358;SDS011;7779;49.596;11.070;2023-05-16T07:22:25;5.30;;;4.80;;
15358;SDS011;7779;49.596;11.070;2023-05-16T07:24:50;5.50;;;5.00;;
15358;SDS011;7779;49.596;11.070;2023-05-16T07:27:18;5.60;;;5.00;;
15358;SDS011;7779;49.596;11.070;2023-05-16T07:29:44;5.20;;;4.60;;
15358;SDS011;7779;49.596;11.070;2023-05-16T07:32:10;5.20;;;4.80;;
15358;SDS011;7779;49.596;11.070;2023-05-16T07:34:35;5.30;;;4.80;;
15358;SDS011;7779;49.596;11.070;2023-05-16T07:37:01;4.90;;;4.50;;
15358;SDS011;7779;49.596;11.070;2023-05-16T07:39:27;5.23;;;4.77;;
15358;SDS011;7779;49.596;11.070;2023-05-16T07:41:53;4.97;;;4.57;;
15358;SDS011;7779;49.596;11.070;2023-05-16T07:44:18;7.43;;;4.97;;
15358;SDS011;7779;49.596;11.070;2023-05-16T07:46:44;5.67;;;5.13;;
15358;SDS011;7779;49.596;11.070;2023-05-16T07:49:10;5.23;;;4.70;;
15358;SDS011;7779;49.596;11.070;2023-05-16T07:51:36;15.57;;;6.00;;
15358;SDS011;7779;49.596;11.070;2023-05-16T07:54:01;6.73;;;4.63;;
15358;SDS011;7779;49.596;11.070;2023-05-16T07:56:27;5.23;;;4.80;;
15358;SDS011;7779;49.596;11.070;2023-05-16T07:58:53;5.70;;;4.93;;
15358;SDS011;7779;49.596;11.070;2023-05-16T08:01:19;5.80;;;4.93;;
15358;SDS011;7779;49.596;11.070;2023-05-16T08:03:45;5.43;;;4.73;;
15358;SDS011;7779;49.596;11.070;2023-05-16T08:06:11;5.30;;;4.80;;
15358;SDS011;7779;49.596;11.070;2023-05-16T08:08:36;5.50;;;5.00;;
15358;SDS011;7779;49.596;11.070;2023-05-16T08:11:02;5.17;;;4.77;;
15358;SDS011;7779;49.596;11.070;2023-05-16T08:13:29;5.47;;;4.97;;
15358;SDS011;7779;49.596;11.070;2023-05-16T08:15:55;5.47;;;4.97;;
15358;SDS011;7779;49.596;11.070;2023-05-16T08:18:21;5.90;;;5.10;;
15358;SDS011;7779;49.596;11.070;2023-05-16T08:20:47;5.20;;;4.80;;
15358;SDS011;7779;49.596;11.070;2023-05-16T08:23:13;5.37;;;4.87;;
15358;SDS011;7779;49.596;11.070;2023-05-16T08:25:39;5.13;;;4.73;;
15358;SDS011;7779;49.596;11.070;2023-05-16T08:28:04;4.90;;;4.50;;
15358;SDS011;7779;49.596;11.070;2023-05-16T08:30:30;5.60;;;5.10;;
15358;SDS011;7779;49.596;11.070;2023-05-16T08:32:56;5.70;;;5.20;;
15358;SDS011;7779;49.596;11.070;2023-05-16T08:35:21;8.33;;;4.83;;
15358;SDS011;7779;49.596;11.070;2023-05-16T08:37:47;15.10;;;5.67;;
15358;SDS011;7779;49.596;11.070;2023-05-16T08:40:13;12.80;;;5.37;;
15358;SDS011;7779;49.596;11.070;2023-05-16T08:42:39;5.03;;;4.50;;
15358;SDS011;7779;49.596;11.070;2023-05-16T08:45:06;5.27;;;4.87;;
15358;SDS011;7779;49.596;11.070;2023-05-16T08:47:32;5.53;;;5.00;;
15358;SDS011;7779;49.596;11.070;2023-05-16T08:50:01;4.97;;;4.57;;
15358;SDS011;7779;49.596;11.070;2023-05-16T08:52:28;5.20;;;4.70;;
15358;SDS011;7779;49.596;11.070;2023-05-16T08:54:58;4.77;;;4.37;;
15358;SDS011;7779;49.596;11.070;2023-05-16T08:57:33;4.93;;;4.53;;
15358;SDS011;7779;49.596;11.070;2023-05-16T08:59:59;4.77;;;4.37;;
15358;SDS011;7779;49.596;11.070;2023-05-16T09:02:28;4.77;;;4.37;;
15358;SDS011;7779;49.596;11.070;2023-05-16T09:04:54;5.17;;;4.60;;
15358;SDS011;7779;49.596;11.070;2023-05-16T09:07:22;4.93;;;4.43;;
15358;SDS011;7779;49.596;11.070;2023-05-16T09:09:48;5.10;;;4.60;;
15358;SDS011;7779;49.596;11.070;2023-05-16T09:12:14;5.90;;;5.07;;
15358;SDS011;7779;49.596;11.070;2023-05-16T09:14:40;5.40;;;4.90;;
15358;SDS011;7779;49.596;11.070;2023-05-16T09:17:07;5.43;;;4.90;;
15358;SDS011;7779;49.596;11.070;2023-05-16T09:19:37;5.60;;;5.10;;
15358;SDS011;7779;49.596;11.070;2023-05-16T09:22:08;6.10;;;5.50;;
15358;SDS011;7779;49.596;11.070;2023-05-16T09:24:41;6.77;;;5.43;;
15358;SDS011;7779;49.596;11.070;2023-05-16T09:27:09;5.57;;;5.07;;
15358;SDS011;7779;49.596;11.070;2023-05-16T09:29:40;7.80;;;5.17;;
15358;SDS011;7779;49.596;11.070;2023-05-16T09:32:14;5.63;;;4.93;;
15358;SDS011;7779;49.596;11.070;2023-05-16T09:34:48;5.47;;;4.97;;
15358;SDS011;7779;49.596;11.070;2023-05-16T09:37:15;5.53;;;5.03;;
15358;SDS011;7779;49.596;11.070;2023-05-16T09:39:45;5.80;;;4.77;;
15358;SDS011;7779;49.596;11.070;2023-05-16T09:42:13;4.70;;;4.30;;
15358;SDS011;7779;49.596;11.070;2023-05-16T09:44:45;4.47;;;4.17;;
15358;SDS011;7779;49.596;11.070;2023-05-16T09:47:15;4.80;;;4.40;;
15358;SDS011;7779;49.596;11.070;2023-05-16T09:49:43;4.80;;;4.30;;
15358;SDS011;7779;49.596;11.070;2023-05-16T09:52:12;4.77;;;4.33;;
15358;SDS011;7779;49.596;11.070;2023-05-16T09:54:39;4.60;;;4.20;;
15358;SDS011;7779;49.596;11.070;2023-05-16T09:57:05;4.87;;;4.37;;
15358;SDS011;7779;49.596;11.070;2023-05-16T09:59:37;4.47;;;4.07;;
15358;SDS011;7779;49.596;11.070;2023-05-16T10:02:07;4.50;;;4.13;;
15358;SDS011;7779;49.596;11.070;2023-05-16T10:04:33;4.27;;;3.97;;
15358;SDS011;7779;49.596;11.070;2023-05-16T10:07:03;13.70;;;6.00;;
15358;SDS011;7779;49.596;11.070;2023-05-16T10:09:33;4.63;;;4.23;;
15358;SDS011;7779;49.596;11.070;2023-05-16T10:12:04;6.40;;;4.30;;
15358;SDS011;7779;49.596;11.070;2023-05-16T10:14:35;5.10;;;3.80;;
15358;SDS011;7779;49.596;11.070;2023-05-16T10:17:03;4.03;;;3.73;;
15358;SDS011;7779;49.596;11.070;2023-05-16T10:19:31;4.30;;;4.00;;
15358;SDS011;7779;49.596;11.070;2023-05-16T10:22:03;4.53;;;4.13;;
15358;SDS011;7779;49.596;11.070;2023-05-16T10:27:47;5.63;;;3.70;;
15358;SDS011;7779;49.596;11.070;2023-05-16T10:30:14;5.73;;;4.00;;
15358;SDS011;7779;49.596;11.070;2023-05-16T10:32:41;5.07;;;3.93;;
15358;SDS011;7779;49.596;11.070;2023-05-16T10:35:10;4.87;;;4.37;;
15358;SDS011;7779;49.596;11.070;2023-05-16T10:37:36;4.97;;;4.50;;
15358;SDS011;7779;49.596;11.070;2023-05-16T10:40:04;4.10;;;3.73;;
15358;SDS011;7779;49.596;11.070;2023-05-16T10:42:32;4.77;;;4.37;;
15358;SDS011;7779;49.596;11.070;2023-05-16T10:45:19;4.03;;;3.73;;
15358;SDS011;7779;49.596;11.070;2023-05-16T10:47:56;4.33;;;3.83;;
15358;SDS011;7779;49.596;11.070;2023-05-16T10:50:37;4.37;;;3.97;;
15358;SDS011;7779;49.596;11.070;2023-05-16T10:53:15;3.50;;;3.20;;
15358;SDS011;7779;49.596;11.070;2023-05-16T11:06:25;3.60;;;2.90;;
15358;SDS011;7779;49.596;11.070;2023-05-16T11:11:45;3.67;;;3.37;;
15358;SDS011;7779;49.596;11.070;2023-05-16T11:17:02;5.17;;;3.00;;
15358;SDS011;7779;49.596;11.070;2023-05-16T11:19:51;2.73;;;2.53;;
15358;SDS011;7779;49.596;11.070;2023-05-16T11:22:25;3.73;;;2.67;;
15358;SDS011;7779;49.596;11.070;2023-05-16T11:25:07;2.57;;;2.37;;
15358;SDS011;7779;49.596;11.070;2023-05-16T11:27:35;3.10;;;2.40;;
15358;SDS011;7779;49.596;11.070;2023-05-16T11:30:14;2.73;;;2.53;;
15358;SDS011;7779;49.596;11.070;2023-05-16T11:32:43;3.30;;;2.70;;
15358;SDS011;7779;49.596;11.070;2023-05-16T11:35:11;5.17;;;2.80;;
15358;SDS011;7779;49.596;11.070;2023-05-16T11:37:42;2.63;;;2.40;;
15358;SDS011;7779;49.596;11.070;2023-05-16T11:40:10;2.60;;;2.40;;
15358;SDS011;7779;49.596;11.070;2023-05-16T11:42:38;3.77;;;2.90;;
15358;SDS011;7779;49.596;11.070;2023-05-16T11:45:19;2.70;;;2.50;;
15358;SDS011;7779;49.596;11.070;2023-05-16T11:47:48;3.33;;;2.60;;
15358;SDS011;7779;49.596;11.070;2023-05-16T11:50:15;3.23;;;2.30;;
15358;SDS011;7779;49.596;11.070;2023-05-16T11:52:47;4.33;;;2.80;;
15358;SDS011;7779;49.596;11.070;2023-05-16T11:55:21;2.60;;;2.40;;
15358;SDS011;7779;49.596;11.070;2023-05-16T11:57:50;3.00;;;2.80;;
15358;SDS011;7779;49.596;11.070;2023-05-16T12:00:17;2.80;;;2.60;;
15358;SDS011;7779;49.596;11.070;2023-05-16T12:02:45;2.83;;;2.60;;
15358;SDS011;7779;49.596;11.070;2023-05-16T12:05:12;3.10;;;2.80;;
15358;SDS011;7779;49.596;11.070;2023-05-16T12:07:42;3.67;;;2.77;;
15358;SDS011;7779;49.596;11.070;2023-05-16T12:10:09;3.47;;;2.80;;
15358;SDS011;7779;49.596;11.070;2023-05-16T12:12:37;6.23;;;3.37;;
15358;SDS011;7779;49.596;11.070;2023-05-16T12:15:07;5.53;;;2.97;;
15358;SDS011;7779;49.596;11.070;2023-05-16T12:17:34;4.43;;;2.93;;
15358;SDS011;7779;49.596;11.070;2023-05-16T12:20:02;3.57;;;3.00;;
15358;SDS011;7779;49.596;11.070;2023-05-16T12:22:30;3.03;;;2.73;;
15358;SDS011;7779;49.596;11.070;2023-05-16T12:25:00;3.43;;;3.13;;
15358;SDS011;7779;49.596;11.070;2023-05-16T12:27:54;3.40;;;3.10;;
15358;SDS011;7779;49.596;11.070;2023-05-16T12:30:22;3.40;;;3.10;;
15358;SDS011;7779;49.596;11.070;2023-05-16T12:35:34;3.53;;;2.90;;
15358;SDS011;7779;49.596;11.070;2023-05-16T12:38:06;3.97;;;2.83;;
15358;SDS011;7779;49.596;11.070;2023-05-16T12:40:37;3.70;;;2.60;;
15358;SDS011;7779;49.596;11.070;2023-05-16T12:43:21;2.90;;;2.67;;
15358;SDS011;7779;49.596;11.070;2023-05-16T12:45:54;3.10;;;2.80;;
15358;SDS011;7779;49.596;11.070;2023-05-16T12:48:22;2.97;;;2.60;;
15358;SDS011;7779;49.596;11.070;2023-05-16T12:50:55;3.77;;;2.77;;
15358;SDS011;7779;49.596;11.070;2023-05-16T12:53:21;3.33;;;3.03;;
15358;SDS011;7779;49.596;11.070;2023-05-16T12:55:47;3.27;;;2.97;;
15358;SDS011;7779;49.596;11.070;2023-05-16T12:58:12;3.13;;;2.83;;
15358;SDS011;7779;49.596;11.070;2023-05-16T13:00:38;3.10;;;2.80;;
15358;SDS011;7779;49.596;11.070;2023-05-16T13:03:04;2.63;;;2.43;;
15358;SDS011;7779;49.596;11.070;2023-05-16T13:05:31;3.90;;;2.40;;
15358;SDS011;7779;49.596;11.070;2023-05-16T13:07:58;3.47;;;3.03;;
15358;SDS011;7779;49.596;11.070;2023-05-16T13:10:25;3.63;;;2.77;;
15358;SDS011;7779;49.596;11.070;2023-05-16T13:12:51;6.10;;;3.07;;
15358;SDS011;7779;49.596;11.070;2023-05-16T13:15:16;2.40;;;2.20;;
15358;SDS011;7779;49.596;11.070;2023-05-16T13:17:42;3.90;;;2.20;;
15358;SDS011;7779;49.596;11.070;2023-05-16T13:20:08;3.63;;;2.17;;
15358;SDS011;7779;49.596;11.070;2023-05-16T13:22:40;2.10;;;1.83;;
15358;SDS011;7779;49.596;11.070;2023-05-16T13:25:08;2.30;;;2.10;;
15358;SDS011;7779;49.596;11.070;2023-05-16T13:27:35;3.53;;;2.00;;
15358;SDS011;7779;49.596;11.070;2023-05-16T13:30:01;2.03;;;1.90;;
15358;SDS011;7779;49.596;11.070;2023-05-16T13:32:28;3.57;;;1.70;;
15358;SDS011;7779;49.596;11.070;2023-05-16T13:34:54;2.47;;;1.60;;
15358;SDS011;7779;49.596;11.070;2023-05-16T13:37:20;2.20;;;1.70;;
15358;SDS011;7779;49.596;11.070;2023-05-16T13:39:48;1.80;;;1.70;;
15358;SDS011;7779;49.596;11.070;2023-05-16T13:42:14;2.60;;;1.60;;
15358;SDS011;7779;49.596;11.070;2023-05-16T13:44:40;2.00;;;1.80;;
15358;SDS011;7779;49.596;11.070;2023-05-16T13:47:06;1.27;;;1.17;;
15358;SDS011;7779;49.596;11.070;2023-05-16T13:49:32;3.00;;;1.60;;
15358;SDS011;7779;49.596;11.070;2023-05-16T13:51:58;1.93;;;1.63;;
15358;SDS011;7779;49.596;11.070;2023-05-16T13:54:25;1.67;;;1.30;;
15358;SDS011;7779;49.596;11.070;2023-05-16T13:56:51;2.00;;;1.50;;
15358;SDS011;7779;49.596;11.070;2023-05-16T13:59:17;2.90;;;1.50;;
15358;SDS011;7779;49.596;11.070;2023-05-16T14:01:43;2.10;;;1.70;;
15358;SDS011;7779;49.596;11.070;2023-05-16T14:04:09;1.43;;;1.33;;
15358;SDS011;7779;49.596;11.070;2023-05-16T14:06:34;1.40;;;1.30;;
15358;SDS011;7779;49.596;11.070;2023-05-16T14:09:01;2.13;;;1.63;;
15358;SDS011;7779;49.596;11.070;2023-05-16T14:11:27;2.70;;;1.30;;
15358;SDS011;7779;49.596;11.070;2023-05-16T14:13:53;1.70;;;1.40;;
15358;SDS011;7779;49.596;11.070;2023-05-16T14:16:19;1.60;;;1.50;;
15358;SDS011;7779;49.596;11.070;2023-05-16T14:18:45;1.77;;;1.33;;
15358;SDS011;7779;49.596;11.070;2023-05-16T14:21:11;1.40;;;1.13;;
15358;SDS011;7779;49.596;11.070;2023-05-16T14:23:37;2.10;;;1.30;;
15358;SDS011;7779;49.596;11.070;2023-05-16T14:26:04;1.33;;;1.23;;
15358;SDS011;7779;49.596;11.070;2023-05-16T14:28:30;1.70;;;1.30;;
15358;SDS011;7779;49.596;11.070;2023-05-16T14:30:57;3.13;;;1.30;;
15358;SDS011;7779;49.596;11.070;2023-05-16T14:33:24;1.50;;;1.40;;
15358;SDS011;7779;49.596;11.070;2023-05-16T14:35:50;1.50;;;1.20;;
15358;SDS011;7779;49.596;11.070;2023-05-16T14:38:16;1.40;;;1.30;;
15358;SDS011;7779;49.596;11.070;2023-05-16T14:40:43;1.50;;;1.20;;
15358;SDS011;7779;49.596;11.070;2023-05-16T14:43:08;1.23;;;1.10;;
15358;SDS011;7779;49.596;11.070;2023-05-16T14:45:36;2.10;;;1.13;;
15358;SDS011;7779;49.596;11.070;2023-05-16T14:48:03;2.07;;;1.37;;
15358;SDS011;7779;49.596;11.070;2023-05-16T14:50:31;1.20;;;1.10;;
15358;SDS011;7779;49.596;11.070;2023-05-16T14:52:56;1.73;;;1.20;;
15358;SDS011;7779;49.596;11.070;2023-05-16T14:55:22;1.73;;;1.37;;
15358;SDS011;7779;49.596;11.070;2023-05-16T14:57:48;2.13;;;1.40;;
15358;SDS011;7779;49.596;11.070;2023-05-16T15:00:14;1.93;;;1.23;;
15358;SDS011;7779;49.596;11.070;2023-05-16T15:02:41;1.37;;;1.27;;
15358;SDS011;7779;49.596;11.070;2023-05-16T15:05:07;1.90;;;1.40;;
15358;SDS011;7779;49.596;11.070;2023-05-16T15:07:33;1.80;;;1.10;;
15358;SDS011;7779;49.596;11.070;2023-05-16T15:09:59;0.97;;;0.93;;
15358;SDS011;7779;49.596;11.070;2023-05-16T15:12:25;1.30;;;1.20;;
15358;SDS011;7779;49.596;11.070;2023-05-16T15:14:51;1.13;;;1.03;;
15358;SDS011;7779;49.596;11.070;2023-05-16T15:17:17;1.53;;;1.27;;
15358;SDS011;7779;49.596;11.070;2023-05-16T15:19:43;1.17;;;0.90;;
15358;SDS011;7779;49.596;11.070;2023-05-16T15:22:08;2.50;;;1.00;;